sensor_id;sensor_type;location;lat;lon;timestamp;pressure;altitude;pressure_sealevel;temperature;humidity
25944;BME280;13742;49.306;8.636;2022-08-25T00:00:49;100476.05;;;25.71;44.35
25944;BME280;13742;49.306;8.636;2022-08-25T00:01:53;100477.36;;;25.69;45.06
25944;BME280;13742;49.306;8.636;2022-08-25T00:02:49;100476.86;;;25.69;44.87
25944;BME280;13742;49.306;8.636;2022-08-25T00:03:49;100473.16;;;25.70;44.25
25944;BME280;13742;49.306;8.636;2022-08-25T00:04:49;100477.63;;;25.68;44.86
25944;BME280;13742;49.306;8.636;2022-08-25T00:05:49;100479.91;;;25.69;44.86
25944;BME280;13742;49.306;8.636;2022-08-25T00:06:50;100478.08;;;25.66;44.87
25944;BME280;13742;49.306;8.636;2022-08-25T00:07:49;100477.95;;;25.68;44.88
25944;BME280;13742;49.306;8.636;2022-08-25T00:08:49;100478.88;;;25.68;45.07
25944;BME280;13742;49.306;8.636;2022-08-25T00:09:50;100478.47;;;25.68;45.18
25944;BME280;13742;49.306;8.636;2022-08-25T00:10:49;100478.73;;;25.65;45.24
25944;BME280;13742;49.306;8.636;2022-08-25T00:11:49;100476.33;;;25.63;45.32
25944;BME280;13742;49.306;8.636;2022-08-25T00:12:49;100475.23;;;25.62;45.12
25944;BME280;13742;49.306;8.636;2022-08-25T00:13:50;100476.97;;;25.61;45.19
25944;BME280;13742;49.306;8.636;2022-08-25T00:14:49;100478.45;;;25.62;44.87
25944;BME280;13742;49.306;8.636;2022-08-25T00:15:49;100477.12;;;25.60;45.59
25944;BME280;13742;49.306;8.636;2022-08-25T00:16:49;100478.67;;;25.61;44.88
25944;BME280;13742;49.306;8.636;2022-08-25T00:17:49;100474.94;;;25.61;45.42
25944;BME280;13742;49.306;8.636;2022-08-25T00:18:50;100479.36;;;25.62;45.16
25944;BME280;13742;49.306;8.636;2022-08-25T00:19:49;100475.09;;;25.60;45.01
25944;BME280;13742;49.306;8.636;2022-08-25T00:20:49;100473.69;;;25.61;45.27
25944;BME280;13742;49.306;8.636;2022-08-25T00:21:49;100473.83;;;25.61;45.30
25944;BME280;13742;49.306;8.636;2022-08-25T00:22:49;100476.95;;;25.60;45.05
25944;BME280;13742;49.306;8.636;2022-08-25T00:23:49;100478.14;;;25.60;45.22
25944;BME280;13742;49.306;8.636;2022-08-25T00:24:49;100478.84;;;25.61;45.46
25944;BME280;13742;49.306;8.636;2022-08-25T00:25:49;100479.00;;;25.61;45.18
25944;BME280;13742;49.306;8.636;2022-08-25T00:26:53;100477.73;;;25.60;45.58
25944;BME280;13742;49.306;8.636;2022-08-25T00:27:49;100474.67;;;25.59;45.76
25944;BME280;13742;49.306;8.636;2022-08-25T00:28:49;100477.50;;;25.58;45.79
25944;BME280;13742;49.306;8.636;2022-08-25T00:29:49;100476.00;;;25.58;45.60
25944;BME280;13742;49.306;8.636;2022-08-25T00:30:49;100475.16;;;25.58;45.57
25944;BME280;13742;49.306;8.636;2022-08-25T00:31:49;100475.23;;;25.59;45.68
25944;BME280;13742;49.306;8.636;2022-08-25T00:32:49;100475.83;;;25.59;45.78
25944;BME280;13742;49.306;8.636;2022-08-25T00:33:49;100472.18;;;25.58;45.91
25944;BME280;13742;49.306;8.636;2022-08-25T00:34:49;100476.55;;;25.58;45.87
25944;BME280;13742;49.306;8.636;2022-08-25T00:35:49;100477.25;;;25.58;45.49
25944;BME280;13742;49.306;8.636;2022-08-25T00:36:52;100479.59;;;25.56;46.03
25944;BME280;13742;49.306;8.636;2022-08-25T00:37:49;100475.05;;;25.53;46.00
25944;BME280;13742;49.306;8.636;2022-08-25T00:38:49;100475.13;;;25.53;46.07
25944;BME280;13742;49.306;8.636;2022-08-25T00:39:49;100477.75;;;25.49;46.34
25944;BME280;13742;49.306;8.636;2022-08-25T00:41:04;100477.08;;;25.49;45.93
25944;BME280;13742;49.306;8.636;2022-08-25T00:41:50;100477.21;;;25.47;46.53
25944;BME280;13742;49.306;8.636;2022-08-25T00:42:49;100479.07;;;25.47;46.35
25944;BME280;13742;49.306;8.636;2022-08-25T00:43:55;100478.11;;;25.45;46.50
25944;BME280;13742;49.306;8.636;2022-08-25T00:44:49;100478.78;;;25.45;46.06
25944;BME280;13742;49.306;8.636;2022-08-25T00:45:49;100480.41;;;25.46;46.12
25944;BME280;13742;49.306;8.636;2022-08-25T00:46:51;100477.82;;;25.44;46.44
25944;BME280;13742;49.306;8.636;2022-08-25T00:47:49;100477.06;;;25.43;46.38
25944;BME280;13742;49.306;8.636;2022-08-25T00:48:50;100477.82;;;25.39;46.62
25944;BME280;13742;49.306;8.636;2022-08-25T00:49:53;100475.13;;;25.36;46.74
25944;BME280;13742;49.306;8.636;2022-08-25T00:50:49;100479.45;;;25.36;46.45
25944;BME280;13742;49.306;8.636;2022-08-25T00:51:51;100477.33;;;25.36;46.52
25944;BME280;13742;49.306;8.636;2022-08-25T00:52:50;100477.58;;;25.32;47.05
25944;BME280;13742;49.306;8.636;2022-08-25T00:53:49;100475.10;;;25.29;46.80
25944;BME280;13742;49.306;8.636;2022-08-25T00:55:49;100478.72;;;25.30;46.91
25944;BME280;13742;49.306;8.636;2022-08-25T00:56:50;100473.73;;;25.28;47.00
25944;BME280;13742;49.306;8.636;2022-08-25T00:58:11;100474.70;;;25.26;47.08
25944;BME280;13742;49.306;8.636;2022-08-25T00:58:49;100477.59;;;25.23;47.32
25944;BME280;13742;49.306;8.636;2022-08-25T00:59:49;100474.88;;;25.23;47.26
25944;BME280;13742;49.306;8.636;2022-08-25T01:00:50;100475.29;;;25.23;47.31
25944;BME280;13742;49.306;8.636;2022-08-25T01:01:49;100474.61;;;25.23;47.11
25944;BME280;13742;49.306;8.636;2022-08-25T01:02:49;100474.67;;;25.21;47.11
25944;BME280;13742;49.306;8.636;2022-08-25T01:03:49;100471.05;;;25.18;47.46
25944;BME280;13742;49.306;8.636;2022-08-25T01:04:49;100474.25;;;25.17;47.54
25944;BME280;13742;49.306;8.636;2022-08-25T01:05:49;100469.73;;;25.13;47.72
25944;BME280;13742;49.306;8.636;2022-08-25T01:06:49;100468.19;;;25.12;47.74
25944;BME280;13742;49.306;8.636;2022-08-25T01:07:49;100470.00;;;25.13;47.35
25944;BME280;13742;49.306;8.636;2022-08-25T01:08:49;100468.78;;;25.11;47.38
25944;BME280;13742;49.306;8.636;2022-08-25T01:09:49;100469.58;;;25.09;47.69
25944;BME280;13742;49.306;8.636;2022-08-25T01:10:49;100469.13;;;25.07;47.82
25944;BME280;13742;49.306;8.636;2022-08-25T01:11:49;100469.95;;;25.06;47.77
25944;BME280;13742;49.306;8.636;2022-08-25T01:12:49;100471.09;;;25.01;47.98
25944;BME280;13742;49.306;8.636;2022-08-25T01:13:53;100467.00;;;24.99;48.10
25944;BME280;13742;49.306;8.636;2022-08-25T01:14:50;100468.80;;;25.00;47.90
25944;BME280;13742;49.306;8.636;2022-08-25T01:15:51;100467.07;;;24.98;47.81
25944;BME280;13742;49.306;8.636;2022-08-25T01:16:49;100465.99;;;24.95;48.08
25944;BME280;13742;49.306;8.636;2022-08-25T01:17:53;100467.64;;;24.93;48.17
25944;BME280;13742;49.306;8.636;2022-08-25T01:18:54;100464.00;;;24.93;48.01
25944;BME280;13742;49.306;8.636;2022-08-25T01:19:49;100465.83;;;24.92;48.23
25944;BME280;13742;49.306;8.636;2022-08-25T01:20:50;100465.08;;;24.92;48.15
25944;BME280;13742;49.306;8.636;2022-08-25T01:21:50;100464.53;;;24.90;48.08
25944;BME280;13742;49.306;8.636;2022-08-25T01:22:49;100462.89;;;24.89;48.17
25944;BME280;13742;49.306;8.636;2022-08-25T01:23:49;100461.95;;;24.88;48.17
25944;BME280;13742;49.306;8.636;2022-08-25T01:24:51;100462.84;;;24.87;47.96
25944;BME280;13742;49.306;8.636;2022-08-25T01:25:57;100463.84;;;24.86;48.45
25944;BME280;13742;49.306;8.636;2022-08-25T01:26:49;100463.16;;;24.82;48.36
25944;BME280;13742;49.306;8.636;2022-08-25T01:27:49;100463.72;;;24.84;48.26
25944;BME280;13742;49.306;8.636;2022-08-25T01:28:54;100466.84;;;24.84;47.94
25944;BME280;13742;49.306;8.636;2022-08-25T01:29:49;100469.52;;;24.83;48.13
25944;BME280;13742;49.306;8.636;2022-08-25T01:30:49;100467.77;;;24.79;48.25
25944;BME280;13742;49.306;8.636;2022-08-25T01:31:57;100470.16;;;24.74;48.74
25944;BME280;13742;49.306;8.636;2022-08-25T01:32:49;100470.95;;;24.67;48.94
25944;BME280;13742;49.306;8.636;2022-08-25T01:33:49;100470.91;;;24.69;48.35
25944;BME280;13742;49.306;8.636;2022-08-25T01:34:49;100470.73;;;24.70;48.13
25944;BME280;13742;49.306;8.636;2022-08-25T01:35:49;100471.44;;;24.70;48.54
25944;BME280;13742;49.306;8.636;2022-08-25T01:36:49;100470.91;;;24.66;48.99
25944;BME280;13742;49.306;8.636;2022-08-25T01:37:49;100473.66;;;24.67;48.91
25944;BME280;13742;49.306;8.636;2022-08-25T01:38:49;100473.19;;;24.65;48.60
25944;BME280;13742;49.306;8.636;2022-08-25T01:39:49;100475.11;;;24.61;49.20
25944;BME280;13742;49.306;8.636;2022-08-25T01:40:49;100474.34;;;24.64;48.80
25944;BME280;13742;49.306;8.636;2022-08-25T01:43:49;100473.08;;;24.61;49.21
25944;BME280;13742;49.306;8.636;2022-08-25T01:44:49;100473.19;;;24.61;48.97
25944;BME280;13742;49.306;8.636;2022-08-25T01:45:49;100474.41;;;24.56;49.41
25944;BME280;13742;49.306;8.636;2022-08-25T01:46:49;100474.22;;;24.55;49.18
25944;BME280;13742;49.306;8.636;2022-08-25T01:47:49;100476.52;;;24.56;49.31
25944;BME280;13742;49.306;8.636;2022-08-25T01:48:49;100476.69;;;24.56;49.45
25944;BME280;13742;49.306;8.636;2022-08-25T01:49:49;100470.03;;;24.56;49.16
25944;BME280;13742;49.306;8.636;2022-08-25T01:50:49;100472.52;;;24.54;49.80
25944;BME280;13742;49.306;8.636;2022-08-25T01:51:55;100470.89;;;24.54;49.61
25944;BME280;13742;49.306;8.636;2022-08-25T01:52:59;100471.33;;;24.54;49.34
25944;BME280;13742;49.306;8.636;2022-08-25T01:53:49;100475.07;;;24.55;49.12
25944;BME280;13742;49.306;8.636;2022-08-25T01:54:49;100471.26;;;24.51;49.83
25944;BME280;13742;49.306;8.636;2022-08-25T01:55:52;100472.45;;;24.43;50.24
25944;BME280;13742;49.306;8.636;2022-08-25T01:56:49;100473.88;;;24.42;50.01
25944;BME280;13742;49.306;8.636;2022-08-25T01:57:49;100474.63;;;24.45;49.91
25944;BME280;13742;49.306;8.636;2022-08-25T01:58:49;100473.46;;;24.46;49.74
25944;BME280;13742;49.306;8.636;2022-08-25T01:59:49;100475.14;;;24.44;50.14
25944;BME280;13742;49.306;8.636;2022-08-25T02:00:49;100479.36;;;24.47;49.52
25944;BME280;13742;49.306;8.636;2022-08-25T02:01:49;100479.88;;;24.43;50.11
25944;BME280;13742;49.306;8.636;2022-08-25T02:02:49;100481.78;;;24.45;49.92
25944;BME280;13742;49.306;8.636;2022-08-25T02:03:50;100482.88;;;24.43;50.16
25944;BME280;13742;49.306;8.636;2022-08-25T02:04:49;100484.48;;;24.45;49.87
25944;BME280;13742;49.306;8.636;2022-08-25T02:05:49;100483.72;;;24.44;50.34
25944;BME280;13742;49.306;8.636;2022-08-25T02:06:49;100486.66;;;24.43;49.93
25944;BME280;13742;49.306;8.636;2022-08-25T02:07:49;100489.66;;;24.45;49.91
25944;BME280;13742;49.306;8.636;2022-08-25T02:08:50;100490.02;;;24.46;49.39
25944;BME280;13742;49.306;8.636;2022-08-25T02:09:49;100489.22;;;24.45;49.58
25944;BME280;13742;49.306;8.636;2022-08-25T02:10:50;100489.33;;;24.46;49.45
25944;BME280;13742;49.306;8.636;2022-08-25T02:11:49;100489.58;;;24.45;50.17
25944;BME280;13742;49.306;8.636;2022-08-25T02:12:49;100491.89;;;24.44;50.35
25944;BME280;13742;49.306;8.636;2022-08-25T02:13:50;100490.06;;;24.45;50.09
25944;BME280;13742;49.306;8.636;2022-08-25T02:14:49;100492.45;;;24.46;49.96
25944;BME280;13742;49.306;8.636;2022-08-25T02:15:52;100492.91;;;24.44;50.06
25944;BME280;13742;49.306;8.636;2022-08-25T02:16:50;100489.96;;;24.40;50.35
25944;BME280;13742;49.306;8.636;2022-08-25T02:17:49;100492.83;;;24.37;50.70
25944;BME280;13742;49.306;8.636;2022-08-25T02:18:49;100489.14;;;24.38;50.77
25944;BME280;13742;49.306;8.636;2022-08-25T02:19:49;100492.69;;;24.38;50.25
25944;BME280;13742;49.306;8.636;2022-08-25T02:20:49;100491.75;;;24.37;50.11
25944;BME280;13742;49.306;8.636;2022-08-25T02:21:49;100489.81;;;24.34;50.88
25944;BME280;13742;49.306;8.636;2022-08-25T02:22:49;100493.05;;;24.19;51.32
25944;BME280;13742;49.306;8.636;2022-08-25T02:23:49;100488.06;;;24.21;51.00
25944;BME280;13742;49.306;8.636;2022-08-25T02:24:49;100486.65;;;24.21;50.75
25944;BME280;13742;49.306;8.636;2022-08-25T02:25:49;100487.67;;;24.23;50.16
25944;BME280;13742;49.306;8.636;2022-08-25T02:26:49;100482.78;;;24.23;50.31
25944;BME280;13742;49.306;8.636;2022-08-25T02:27:49;100484.75;;;24.23;49.96
25944;BME280;13742;49.306;8.636;2022-08-25T02:28:49;100484.35;;;24.22;50.42
25944;BME280;13742;49.306;8.636;2022-08-25T02:29:49;100482.70;;;24.17;51.06
25944;BME280;13742;49.306;8.636;2022-08-25T02:30:51;100482.06;;;24.17;50.54
25944;BME280;13742;49.306;8.636;2022-08-25T02:31:49;100479.72;;;24.19;50.29
25944;BME280;13742;49.306;8.636;2022-08-25T02:32:49;100481.03;;;24.19;50.24
25944;BME280;13742;49.306;8.636;2022-08-25T02:33:49;100481.70;;;24.19;49.93
25944;BME280;13742;49.306;8.636;2022-08-25T02:34:49;100478.63;;;24.19;51.15
25944;BME280;13742;49.306;8.636;2022-08-25T02:35:50;100479.09;;;24.16;51.01
25944;BME280;13742;49.306;8.636;2022-08-25T02:36:49;100474.92;;;24.16;50.92
25944;BME280;13742;49.306;8.636;2022-08-25T02:37:49;100477.73;;;24.13;51.04
25944;BME280;13742;49.306;8.636;2022-08-25T02:38:49;100474.70;;;24.13;50.72
25944;BME280;13742;49.306;8.636;2022-08-25T02:39:49;100473.17;;;24.14;50.31
25944;BME280;13742;49.306;8.636;2022-08-25T02:40:51;100473.30;;;24.14;50.89
25944;BME280;13742;49.306;8.636;2022-08-25T02:41:49;100471.86;;;24.14;50.66
25944;BME280;13742;49.306;8.636;2022-08-25T02:42:49;100473.40;;;24.16;50.29
25944;BME280;13742;49.306;8.636;2022-08-25T02:43:49;100469.93;;;24.14;50.66
25944;BME280;13742;49.306;8.636;2022-08-25T02:44:49;100471.64;;;24.15;50.73
25944;BME280;13742;49.306;8.636;2022-08-25T02:45:49;100472.41;;;24.16;50.57
25944;BME280;13742;49.306;8.636;2022-08-25T02:46:49;100465.40;;;24.15;50.74
25944;BME280;13742;49.306;8.636;2022-08-25T02:47:49;100469.16;;;24.14;50.79
25944;BME280;13742;49.306;8.636;2022-08-25T02:48:51;100467.88;;;24.13;50.40
25944;BME280;13742;49.306;8.636;2022-08-25T02:49:49;100467.23;;;24.11;50.49
25944;BME280;13742;49.306;8.636;2022-08-25T02:50:50;100470.84;;;24.11;50.96
25944;BME280;13742;49.306;8.636;2022-08-25T02:51:49;100467.10;;;24.10;50.34
25944;BME280;13742;49.306;8.636;2022-08-25T02:52:50;100468.19;;;24.09;50.36
25944;BME280;13742;49.306;8.636;2022-08-25T02:53:49;100464.50;;;24.06;50.96
25944;BME280;13742;49.306;8.636;2022-08-25T02:54:49;100468.04;;;24.06;50.66
25944;BME280;13742;49.306;8.636;2022-08-25T02:55:49;100466.34;;;24.03;51.03
25944;BME280;13742;49.306;8.636;2022-08-25T02:56:49;100461.86;;;24.02;50.70
25944;BME280;13742;49.306;8.636;2022-08-25T02:57:49;100464.97;;;24.02;50.96
25944;BME280;13742;49.306;8.636;2022-08-25T02:58:49;100462.08;;;24.01;50.70
25944;BME280;13742;49.306;8.636;2022-08-25T02:59:50;100457.59;;;24.00;50.40
25944;BME280;13742;49.306;8.636;2022-08-25T03:00:49;100462.36;;;23.99;50.75
25944;BME280;13742;49.306;8.636;2022-08-25T03:01:49;100460.05;;;23.97;50.91
25944;BME280;13742;49.306;8.636;2022-08-25T03:02:49;100460.94;;;23.96;51.17
25944;BME280;13742;49.306;8.636;2022-08-25T03:03:51;100459.17;;;23.93;51.36
25944;BME280;13742;49.306;8.636;2022-08-25T03:04:49;100458.06;;;23.92;51.42
25944;BME280;13742;49.306;8.636;2022-08-25T03:05:49;100460.59;;;23.92;51.34
25944;BME280;13742;49.306;8.636;2022-08-25T03:06:49;100459.33;;;23.88;51.60
25944;BME280;13742;49.306;8.636;2022-08-25T03:07:49;100460.36;;;23.87;51.19
25944;BME280;13742;49.306;8.636;2022-08-25T03:08:49;100458.98;;;23.82;51.65
25944;BME280;13742;49.306;8.636;2022-08-25T03:09:49;100460.97;;;23.81;51.79
25944;BME280;13742;49.306;8.636;2022-08-25T03:10:49;100460.80;;;23.81;51.51
25944;BME280;13742;49.306;8.636;2022-08-25T03:11:49;100461.14;;;23.81;51.79
25944;BME280;13742;49.306;8.636;2022-08-25T03:12:49;100460.95;;;23.80;51.30
25944;BME280;13742;49.306;8.636;2022-08-25T03:13:49;100460.77;;;23.77;51.76
25944;BME280;13742;49.306;8.636;2022-08-25T03:14:49;100459.14;;;23.77;51.91
25944;BME280;13742;49.306;8.636;2022-08-25T03:15:49;100462.16;;;23.76;51.38
25944;BME280;13742;49.306;8.636;2022-08-25T03:16:49;100455.86;;;23.74;51.34
25944;BME280;13742;49.306;8.636;2022-08-25T03:17:49;100460.23;;;23.70;52.01
25944;BME280;13742;49.306;8.636;2022-08-25T03:18:49;100459.73;;;23.70;51.96
25944;BME280;13742;49.306;8.636;2022-08-25T03:19:49;100460.18;;;23.68;51.86
25944;BME280;13742;49.306;8.636;2022-08-25T03:20:49;100460.63;;;23.66;52.55
25944;BME280;13742;49.306;8.636;2022-08-25T03:21:51;100458.41;;;23.65;52.27
25944;BME280;13742;49.306;8.636;2022-08-25T03:22:49;100459.86;;;23.60;52.50
25944;BME280;13742;49.306;8.636;2022-08-25T03:23:49;100456.88;;;23.58;52.63
25944;BME280;13742;49.306;8.636;2022-08-25T03:24:49;100458.78;;;23.60;52.49
25944;BME280;13742;49.306;8.636;2022-08-25T03:25:54;100460.33;;;23.60;52.09
25944;BME280;13742;49.306;8.636;2022-08-25T03:26:54;100457.09;;;23.56;53.01
25944;BME280;13742;49.306;8.636;2022-08-25T03:27:50;100459.77;;;23.58;52.56
25944;BME280;13742;49.306;8.636;2022-08-25T03:28:49;100460.85;;;23.58;52.51
25944;BME280;13742;49.306;8.636;2022-08-25T03:29:49;100460.34;;;23.59;52.18
25944;BME280;13742;49.306;8.636;2022-08-25T03:30:49;100456.92;;;23.56;53.15
25944;BME280;13742;49.306;8.636;2022-08-25T03:31:49;100459.28;;;23.56;52.68
25944;BME280;13742;49.306;8.636;2022-08-25T03:32:49;100461.45;;;23.53;52.93
25944;BME280;13742;49.306;8.636;2022-08-25T03:33:49;100463.05;;;23.52;52.62
25944;BME280;13742;49.306;8.636;2022-08-25T03:34:49;100462.28;;;23.49;53.11
25944;BME280;13742;49.306;8.636;2022-08-25T03:35:49;100459.87;;;23.47;53.29
25944;BME280;13742;49.306;8.636;2022-08-25T03:36:51;100458.86;;;23.47;53.11
25944;BME280;13742;49.306;8.636;2022-08-25T03:37:53;100459.80;;;23.47;53.33
25944;BME280;13742;49.306;8.636;2022-08-25T03:38:50;100460.64;;;23.47;53.20
25944;BME280;13742;49.306;8.636;2022-08-25T03:39:49;100458.52;;;23.47;53.14
25944;BME280;13742;49.306;8.636;2022-08-25T03:40:49;100457.70;;;23.44;53.46
25944;BME280;13742;49.306;8.636;2022-08-25T03:41:51;100459.64;;;23.45;52.84
25944;BME280;13742;49.306;8.636;2022-08-25T03:42:49;100459.28;;;23.44;53.27
25944;BME280;13742;49.306;8.636;2022-08-25T03:43:49;100455.59;;;23.45;52.87
25944;BME280;13742;49.306;8.636;2022-08-25T03:44:49;100456.27;;;23.45;53.05
25944;BME280;13742;49.306;8.636;2022-08-25T03:45:49;100453.41;;;23.45;53.43
25944;BME280;13742;49.306;8.636;2022-08-25T03:46:50;100453.63;;;23.43;53.71
25944;BME280;13742;49.306;8.636;2022-08-25T03:47:49;100451.09;;;23.37;54.10
25944;BME280;13742;49.306;8.636;2022-08-25T03:48:49;100449.30;;;23.39;53.70
25944;BME280;13742;49.306;8.636;2022-08-25T03:49:49;100445.67;;;23.36;53.63
25944;BME280;13742;49.306;8.636;2022-08-25T03:50:50;100445.80;;;23.35;53.71
25944;BME280;13742;49.306;8.636;2022-08-25T03:51:49;100442.10;;;23.35;53.91
25944;BME280;13742;49.306;8.636;2022-08-25T03:52:53;100438.09;;;23.34;54.15
25944;BME280;13742;49.306;8.636;2022-08-25T03:53:49;100441.38;;;23.32;54.26
25944;BME280;13742;49.306;8.636;2022-08-25T03:54:49;100434.33;;;23.33;53.79
25944;BME280;13742;49.306;8.636;2022-08-25T03:55:49;100431.89;;;23.35;53.47
25944;BME280;13742;49.306;8.636;2022-08-25T03:56:49;100430.22;;;23.32;53.70
25944;BME280;13742;49.306;8.636;2022-08-25T03:57:49;100433.58;;;23.29;53.99
25944;BME280;13742;49.306;8.636;2022-08-25T03:58:49;100431.61;;;23.31;53.76
25944;BME280;13742;49.306;8.636;2022-08-25T03:59:49;100428.62;;;23.29;54.32
25944;BME280;13742;49.306;8.636;2022-08-25T04:00:49;100428.16;;;23.25;54.18
25944;BME280;13742;49.306;8.636;2022-08-25T04:01:49;100429.85;;;23.25;54.62
25944;BME280;13742;49.306;8.636;2022-08-25T04:02:49;100431.27;;;23.24;54.60
25944;BME280;13742;49.306;8.636;2022-08-25T04:03:49;100430.42;;;23.24;54.32
25944;BME280;13742;49.306;8.636;2022-08-25T04:04:49;100429.78;;;23.19;54.82
25944;BME280;13742;49.306;8.636;2022-08-25T04:05:49;100428.82;;;23.15;54.90
25944;BME280;13742;49.306;8.636;2022-08-25T04:06:49;100430.05;;;23.14;55.28
25944;BME280;13742;49.306;8.636;2022-08-25T04:07:49;100429.02;;;23.09;55.31
25944;BME280;13742;49.306;8.636;2022-08-25T04:08:51;100430.06;;;23.08;55.57
25944;BME280;13742;49.306;8.636;2022-08-25T04:09:49;100429.76;;;23.09;55.16
25944;BME280;13742;49.306;8.636;2022-08-25T04:10:49;100430.58;;;23.06;55.83
25944;BME280;13742;49.306;8.636;2022-08-25T04:11:49;100428.63;;;23.08;55.51
25944;BME280;13742;49.306;8.636;2022-08-25T04:12:49;100431.27;;;23.10;55.15
25944;BME280;13742;49.306;8.636;2022-08-25T04:13:49;100434.98;;;23.09;55.54
25944;BME280;13742;49.306;8.636;2022-08-25T04:14:49;100435.80;;;23.07;55.12
25944;BME280;13742;49.306;8.636;2022-08-25T04:15:49;100435.30;;;23.06;55.43
25944;BME280;13742;49.306;8.636;2022-08-25T04:16:49;100439.17;;;23.06;55.82
25944;BME280;13742;49.306;8.636;2022-08-25T04:17:49;100436.11;;;23.05;55.67
25944;BME280;13742;49.306;8.636;2022-08-25T04:18:49;100439.72;;;23.05;55.82
25944;BME280;13742;49.306;8.636;2022-08-25T04:19:49;100443.64;;;23.01;55.99
25944;BME280;13742;49.306;8.636;2022-08-25T04:20:49;100441.34;;;23.03;55.54
25944;BME280;13742;49.306;8.636;2022-08-25T04:21:49;100438.84;;;23.04;55.79
25944;BME280;13742;49.306;8.636;2022-08-25T04:22:49;100441.70;;;23.05;55.64
25944;BME280;13742;49.306;8.636;2022-08-25T04:23:49;100445.98;;;23.04;56.20
25944;BME280;13742;49.306;8.636;2022-08-25T04:24:49;100443.75;;;23.06;55.81
25944;BME280;13742;49.306;8.636;2022-08-25T04:25:49;100445.41;;;23.05;56.23
25944;BME280;13742;49.306;8.636;2022-08-25T04:26:49;100447.83;;;23.07;55.73
25944;BME280;13742;49.306;8.636;2022-08-25T04:27:49;100443.19;;;23.05;56.08
25944;BME280;13742;49.306;8.636;2022-08-25T04:28:49;100443.66;;;23.05;56.06
25944;BME280;13742;49.306;8.636;2022-08-25T04:29:49;100449.55;;;23.05;56.15
25944;BME280;13742;49.306;8.636;2022-08-25T04:30:49;100447.97;;;23.05;55.77
25944;BME280;13742;49.306;8.636;2022-08-25T04:31:49;100455.13;;;22.99;56.14
25944;BME280;13742;49.306;8.636;2022-08-25T04:32:49;100456.66;;;22.95;56.73
25944;BME280;13742;49.306;8.636;2022-08-25T04:33:49;100456.05;;;22.96;56.71
25944;BME280;13742;49.306;8.636;2022-08-25T04:34:49;100461.34;;;22.96;56.98
25944;BME280;13742;49.306;8.636;2022-08-25T04:35:49;100459.70;;;22.94;56.92
25944;BME280;13742;49.306;8.636;2022-08-25T04:36:50;100461.67;;;22.87;57.27
25944;BME280;13742;49.306;8.636;2022-08-25T04:37:49;100464.36;;;22.92;56.77
25944;BME280;13742;49.306;8.636;2022-08-25T04:38:49;100463.91;;;22.92;56.92
25944;BME280;13742;49.306;8.636;2022-08-25T04:39:49;100468.70;;;22.91;57.19
25944;BME280;13742;49.306;8.636;2022-08-25T04:41:49;100470.56;;;22.61;58.33
25944;BME280;13742;49.306;8.636;2022-08-25T04:42:49;100464.91;;;22.72;57.13
25944;BME280;13742;49.306;8.636;2022-08-25T04:43:49;100462.42;;;22.56;58.33
25944;BME280;13742;49.306;8.636;2022-08-25T04:44:49;100460.11;;;22.53;58.65
25944;BME280;13742;49.306;8.636;2022-08-25T04:45:49;100458.58;;;22.60;58.43
25944;BME280;13742;49.306;8.636;2022-08-25T04:46:49;100459.09;;;22.68;57.60
25944;BME280;13742;49.306;8.636;2022-08-25T04:47:49;100455.32;;;22.55;58.42
25944;BME280;13742;49.306;8.636;2022-08-25T04:48:49;100457.51;;;22.55;58.29
25944;BME280;13742;49.306;8.636;2022-08-25T04:49:49;100458.30;;;22.65;57.98
25944;BME280;13742;49.306;8.636;2022-08-25T04:50:49;100454.25;;;22.48;59.01
25944;BME280;13742;49.306;8.636;2022-08-25T04:51:49;100455.09;;;22.53;58.48
25944;BME280;13742;49.306;8.636;2022-08-25T04:52:49;100452.45;;;22.58;57.93
25944;BME280;13742;49.306;8.636;2022-08-25T04:53:49;100456.98;;;22.63;58.00
25944;BME280;13742;49.306;8.636;2022-08-25T04:54:49;100455.17;;;22.64;57.28
25944;BME280;13742;49.306;8.636;2022-08-25T04:55:49;100459.13;;;22.67;57.36
25944;BME280;13742;49.306;8.636;2022-08-25T04:56:49;100463.41;;;22.69;57.67
25944;BME280;13742;49.306;8.636;2022-08-25T04:57:49;100459.56;;;22.70;57.72
25944;BME280;13742;49.306;8.636;2022-08-25T04:58:49;100458.69;;;22.72;56.87
25944;BME280;13742;49.306;8.636;2022-08-25T04:59:49;100461.14;;;22.74;56.45
25944;BME280;13742;49.306;8.636;2022-08-25T05:00:49;100455.64;;;22.76;56.43
25944;BME280;13742;49.306;8.636;2022-08-25T05:01:49;100458.40;;;22.79;56.34
25944;BME280;13742;49.306;8.636;2022-08-25T05:02:49;100459.09;;;22.82;57.15
25944;BME280;13742;49.306;8.636;2022-08-25T05:03:53;100458.41;;;22.85;57.22
25944;BME280;13742;49.306;8.636;2022-08-25T05:04:49;100455.31;;;22.85;57.15
25944;BME280;13742;49.306;8.636;2022-08-25T05:05:51;100456.86;;;22.87;57.18
25944;BME280;13742;49.306;8.636;2022-08-25T05:06:49;100460.59;;;22.88;57.15
25944;BME280;13742;49.306;8.636;2022-08-25T05:07:49;100460.89;;;22.89;57.30
25944;BME280;13742;49.306;8.636;2022-08-25T05:08:50;100456.31;;;22.91;56.84
25944;BME280;13742;49.306;8.636;2022-08-25T05:09:49;100455.42;;;22.92;56.97
25944;BME280;13742;49.306;8.636;2022-08-25T05:10:49;100453.97;;;22.94;56.47
25944;BME280;13742;49.306;8.636;2022-08-25T05:11:49;100453.06;;;22.95;56.84
25944;BME280;13742;49.306;8.636;2022-08-25T05:12:49;100452.78;;;22.97;56.72
25944;BME280;13742;49.306;8.636;2022-08-25T05:13:49;100451.03;;;22.98;56.47
25944;BME280;13742;49.306;8.636;2022-08-25T05:14:51;100453.11;;;23.00;56.41
25944;BME280;13742;49.306;8.636;2022-08-25T05:15:55;100453.14;;;23.01;56.25
25944;BME280;13742;49.306;8.636;2022-08-25T05:16:49;100457.68;;;23.03;57.05
25944;BME280;13742;49.306;8.636;2022-08-25T05:17:49;100455.92;;;23.04;57.53